^^
Datos históricos de la estación: Murcia-Puente Tocinos
Diario Informe para Mayo 2, 2019 Unidades:  Ambas    Ingés   Métrico
Diario Semanal Mensual Anual
  Máxima: Mínima: Promedio:
Temperatura: 72.7 °F /  22.6 °C 57 °F /  13.9 °C 64.2 °F /  17.9 °C
Punto de rocio: 54.7 °F /  12.6 °C 43.5 °F /  6.4 °C 49.3 °F /  9.6 °C
Humedad: 83% 37.4% 61%
Velocidad viento: 11.8mph /  19km/h - 5.7mph /  9.2km/h
Racha viento: 21.3mph /  34.3km/h - -
Viento- - ESE
Presión: 29.9 in /  1013.6 hPa 29.9 in /  1011.1 hPa -
Precipitación: 0 in /  0.0 mm    
 
 
Tabla de datos para Mayo 2, 2019
Hora Temperatura Punto de rocio Presión Viento Velocidad viento Racha viento Humedad Intensidad lluvia(por hora) Nubes
00:04 61.2 °F /  16.2 °C 54.7 °F /  12.6 °C 29.9in /  1013.1hPa NE 3.1mph /  5km/h 5.2mph /  8.4km/h 79% 0in /  0.0mm
00:09 61.2 °F /  16.2 °C 54.7 °F /  12.6 °C 29.9in /  1013.0hPa NE 2.8mph /  4.5km/h 5mph /  8km/h 79% 0in /  0.0mm
00:14 61.2 °F /  16.2 °C 54.7 °F /  12.6 °C 29.9in /  1013.0hPa NE 2mph /  3.2km/h 5mph /  8km/h 79% 0in /  0.0mm
00:19 61.2 °F /  16.2 °C 54.7 °F /  12.6 °C 29.9in /  1013.0hPa NE 2mph /  3.2km/h 5mph /  8km/h 79% 0in /  0.0mm
00:24 61.2 °F /  16.2 °C 54.7 °F /  12.6 °C 29.9in /  1012.9hPa NE 2mph /  3.2km/h 5mph /  8km/h 79% 0in /  0.0mm
00:29 61.2 °F /  16.2 °C 54.7 °F /  12.6 °C 29.9in /  1012.9hPa NE 2mph /  3.2km/h 5mph /  8km/h 79% 0in /  0.0mm
00:34 61.2 °F /  16.2 °C 54.7 °F /  12.6 °C 29.9in /  1013.3hPa NE 2mph /  3.2km/h 3.6mph /  5.8km/h 79% 0in /  0.0mm
00:39 61.3 °F /  16.3 °C 54.7 °F /  12.6 °C 29.9in /  1013.3hPa ESE 1.9mph /  3.1km/h 4.6mph /  7.4km/h 78.9% 0in /  0.0mm
00:44 61.3 °F /  16.3 °C 54.3 °F /  12.4 °C 29.9in /  1013.3hPa Sur 1.8mph /  2.9km/h 5.2mph /  8.4km/h 78% 0in /  0.0mm
00:49 61.3 °F /  16.3 °C 54.3 °F /  12.4 °C 29.9in /  1013.4hPa Sur 2.2mph /  3.6km/h 5.2mph /  8.4km/h 78% 0in /  0.0mm
00:54 61.3 °F /  16.3 °C 54.3 °F /  12.4 °C 29.9in /  1013.4hPa SSO 3.1mph /  5km/h 5.2mph /  8.4km/h 78% 0in /  0.0mm
00:59 61.3 °F /  16.3 °C 54.3 °F /  12.4 °C 29.9in /  1013.4hPa SSO 3.1mph /  5km/h 5.8mph /  9.3km/h 78% 0in /  0.0mm
01:04 61.3 °F /  16.3 °C 54.3 °F /  12.4 °C 29.9in /  1013.5hPa Sur 3.1mph /  5km/h 6mph /  9.7km/h 78% 0in /  0.0mm
01:09 61.3 °F /  16.3 °C 54.5 °F /  12.5 °C 29.9in /  1013.5hPa Sur 3.3mph /  5.3km/h 7.4mph /  11.9km/h 78% 0in /  0.0mm
01:14 61.5 °F /  16.4 °C 54.3 °F /  12.4 °C 29.9in /  1013.5hPa SSO 3.6mph /  5.8km/h 7mph /  11.3km/h 77.2% 0in /  0.0mm
01:19 61.5 °F /  16.4 °C 54.1 °F /  12.3 °C 29.9in /  1013.5hPa SSO 3.2mph /  5.1km/h 6mph /  9.7km/h 77% 0in /  0.0mm
01:24 61.3 °F /  16.3 °C 54.3 °F /  12.4 °C 29.9in /  1013.5hPa SO 2.4mph /  3.9km/h 3mph /  4.8km/h 77.6% 0in /  0.0mm
01:29 61.2 °F /  16.2 °C 54.5 °F /  12.5 °C 29.9in /  1013.5hPa ONO 2mph /  3.2km/h 4.7mph /  7.6km/h 78.4% 0in /  0.0mm
01:34 61 °F /  16.1 °C 54.5 °F /  12.5 °C 29.9in /  1013.5hPa NNO 1.4mph /  2.2km/h 5mph /  8km/h 79% 0in /  0.0mm
01:39 60.6 °F /  15.9 °C 54.5 °F /  12.5 °C 29.9in /  1013.4hPa NNE 1.6mph /  2.6km/h 5mph /  8km/h 80% 0in /  0.0mm
01:44 60.4 °F /  15.8 °C 54.5 °F /  12.5 °C 29.9in /  1013.4hPa NNE 2mph /  3.2km/h 5mph /  8km/h 80.5% 0in /  0.0mm
01:49 60.4 °F /  15.8 °C 54.7 °F /  12.6 °C 29.9in /  1013.4hPa NNE 1.8mph /  2.9km/h 4.6mph /  7.4km/h 81% 0in /  0.0mm
01:54 60.4 °F /  15.8 °C 54.5 °F /  12.5 °C 29.9in /  1013.4hPa NNE 1.4mph /  2.2km/h 5mph /  8km/h 81% 0in /  0.0mm
01:59 60.3 °F /  15.7 °C 54.3 °F /  12.4 °C 29.9in /  1013.4hPa NE 2.1mph /  3.4km/h 5mph /  8km/h 80.6% 0in /  0.0mm
02:04 60.1 °F /  15.6 °C 53.6 °F /  12 °C 29.9in /  1013.4hPa ENE 2.9mph /  4.6km/h 5mph /  8km/h 79.2% 0in /  0.0mm
02:09 59.7 °F /  15.4 °C 52.7 °F /  11.5 °C 29.9in /  1013.0hPa NE 2.7mph /  4.3km/h 5mph /  8km/h 77.7% 0in /  0.0mm
02:14 59.5 °F /  15.3 °C 52.5 °F /  11.4 °C 29.9in /  1013.0hPa ENE 2.4mph /  3.9km/h 5.2mph /  8.4km/h 77.3% 0in /  0.0mm
02:19 59.5 °F /  15.3 °C 52.7 °F /  11.5 °C 29.9in /  1013.0hPa NE 2.4mph /  3.9km/h 5.8mph /  9.3km/h 78% 0in /  0.0mm
02:24 59.5 °F /  15.3 °C 52.7 °F /  11.5 °C 29.9in /  1012.9hPa NE 2.4mph /  3.9km/h 6mph /  9.7km/h 78% 0in /  0.0mm
02:29 59.5 °F /  15.3 °C 53.1 °F /  11.7 °C 29.9in /  1012.9hPa NE 2.7mph /  4.3km/h 5.8mph /  9.3km/h 78.8% 0in /  0.0mm
02:34 59.7 °F /  15.4 °C 53.2 °F /  11.8 °C 29.9in /  1012.9hPa NE 3.1mph /  5km/h 6mph /  9.7km/h 79% 0in /  0.0mm
02:39 59.7 °F /  15.4 °C 53.2 °F /  11.8 °C 29.9in /  1012.6hPa ENE 3mph /  4.9km/h 5.2mph /  8.4km/h 79% 0in /  0.0mm
02:44 59.7 °F /  15.4 °C 53.2 °F /  11.8 °C 29.9in /  1012.6hPa ENE 2.9mph /  4.6km/h 5.2mph /  8.4km/h 79.5% 0in /  0.0mm
02:49 59.5 °F /  15.3 °C 53.6 °F /  12 °C 29.9in /  1012.6hPa NE 3mph /  4.8km/h 5.2mph /  8.4km/h 80.4% 0in /  0.0mm
02:54 59.5 °F /  15.3 °C 53.8 °F /  12.1 °C 29.9in /  1012.3hPa ENE 3.1mph /  5km/h 5mph /  8km/h 81% 0in /  0.0mm
02:59 59.5 °F /  15.3 °C 53.8 °F /  12.1 °C 29.9in /  1012.3hPa ENE 1.6mph /  2.6km/h 2mph /  3.2km/h 81% 0in /  0.0mm
03:04 59.4 °F /  15.2 °C 53.6 °F /  12 °C 29.9in /  1012.3hPa Calm     81.1% 0in /  0.0mm
03:09 59.4 °F /  15.2 °C 53.4 °F /  11.9 °C 29.9in /  1012.0hPa Calm     81% 0in /  0.0mm
03:14 59.2 °F /  15.1 °C 53.2 °F /  11.8 °C 29.9in /  1012.0hPa Calm   4.6mph /  7.4km/h 80.6% 0in /  0.0mm
03:19 58.8 °F /  14.9 °C 52.7 °F /  11.5 °C 29.9in /  1012.0hPa ENE 0.7mph /  1.2km/h 5mph /  8km/h 80.1% 0in /  0.0mm
03:24 58.8 °F /  14.9 °C 53.1 °F /  11.7 °C 29.9in /  1011.9hPa ENE 2mph /  3.2km/h 5mph /  8km/h 81% 0in /  0.0mm
03:29 58.8 °F /  14.9 °C 53.1 °F /  11.7 °C 29.9in /  1011.9hPa NE 2mph /  3.2km/h 5mph /  8km/h 81.3% 0in /  0.0mm
03:34 58.8 °F /  14.9 °C 53.2 °F /  11.8 °C 29.9in /  1011.9hPa NE 2mph /  3.2km/h 4mph /  6.4km/h 82% 0in /  0.0mm
03:39 58.6 °F /  14.8 °C 53.2 °F /  11.8 °C 29.9in /  1011.8hPa NE 1.7mph /  2.8km/h 4mph /  6.4km/h 82% 0in /  0.0mm
03:44 58.6 °F /  14.8 °C 53.2 °F /  11.8 °C 29.9in /  1011.8hPa NE 1.4mph /  2.2km/h   82% 0in /  0.0mm
03:49 58.6 °F /  14.8 °C 53.4 °F /  11.9 °C 29.9in /  1011.9hPa ENE 1.4mph /  2.2km/h 4.6mph /  7.4km/h 82.5% 0in /  0.0mm
03:54 58.8 °F /  14.9 °C 53.2 °F /  11.8 °C 29.9in /  1011.9hPa SO 1.4mph /  2.2km/h 5mph /  8km/h 82% 0in /  0.0mm
03:59 58.8 °F /  14.9 °C 53.2 °F /  11.8 °C 29.9in /  1011.9hPa OSO 1.7mph /  2.7km/h 5.4mph /  8.7km/h 82% 0in /  0.0mm
04:04 58.6 °F /  14.8 °C 53.2 °F /  11.8 °C 29.9in /  1011.9hPa OSO 2mph /  3.2km/h 6mph /  9.7km/h 82% 0in /  0.0mm
04:09 58.6 °F /  14.8 °C 53.2 °F /  11.8 °C 29.9in /  1011.8hPa Oeste 2.4mph /  3.8km/h 6mph /  9.7km/h 82% 0in /  0.0mm
04:14 58.5 °F /  14.7 °C 53.2 °F /  11.8 °C 29.9in /  1011.8hPa Oeste 3.1mph /  5km/h 5mph /  8km/h 82.5% 0in /  0.0mm
04:19 58.5 °F /  14.7 °C 53.2 °F /  11.8 °C 29.9in /  1011.8hPa Oeste 2.5mph /  4km/h 3.5mph /  5.6km/h 83% 0in /  0.0mm
04:24 58.6 °F /  14.8 °C 53.4 °F /  11.9 °C 29.9in /  1011.7hPa Oeste 1.4mph /  2.2km/h 3.6mph /  5.8km/h 83% 0in /  0.0mm
04:29 58.6 °F /  14.8 °C 53.4 °F /  11.9 °C 29.9in /  1011.7hPa Oeste 1.6mph /  2.5km/h 4mph /  6.4km/h 83% 0in /  0.0mm
04:34 58.6 °F /  14.8 °C 53.4 °F /  11.9 °C 29.9in /  1011.8hPa Oeste 1.8mph /  2.9km/h 4mph /  6.4km/h 83% 0in /  0.0mm
04:39 58.5 °F /  14.7 °C 53.4 °F /  11.9 °C 29.9in /  1011.8hPa Oeste 1.7mph /  2.7km/h 4.7mph /  7.6km/h 82.9% 0in /  0.0mm
04:44 58.5 °F /  14.7 °C 53.1 °F /  11.7 °C 29.9in /  1011.8hPa OSO 1.4mph /  2.2km/h 5.4mph /  8.7km/h 82% 0in /  0.0mm
04:49 58.5 °F /  14.7 °C 53.1 °F /  11.7 °C 29.9in /  1011.9hPa OSO 1.7mph /  2.8km/h 6mph /  9.7km/h 82% 0in /  0.0mm
04:54 58.5 °F /  14.7 °C 53.1 °F /  11.7 °C 29.9in /  1011.9hPa Oeste 2.4mph /  3.9km/h 5.9mph /  9.5km/h 82% 0in /  0.0mm
04:59 58.5 °F /  14.7 °C 53.1 °F /  11.7 °C 29.9in /  1011.9hPa Oeste 2.6mph /  4.2km/h 6mph /  9.7km/h 82% 0in /  0.0mm
05:04 58.5 °F /  14.7 °C 53.1 °F /  11.7 °C 29.9in /  1011.9hPa OSO 2.9mph /  4.6km/h 5mph /  8km/h 82% 0in /  0.0mm
05:09 58.6 °F /  14.8 °C 53.1 °F /  11.7 °C 29.9in /  1011.7hPa Oeste 2.4mph /  3.8km/h 4.6mph /  7.4km/h 82% 0in /  0.0mm
05:14 58.6 °F /  14.8 °C 53.2 °F /  11.8 °C 29.9in /  1011.7hPa ONO 1.4mph /  2.2km/h 5mph /  8km/h 82% 0in /  0.0mm
05:19 58.6 °F /  14.8 °C 53.1 °F /  11.7 °C 29.9in /  1011.8hPa ONO 1.6mph /  2.6km/h 5.2mph /  8.4km/h 81.7% 0in /  0.0mm
05:24 58.5 °F /  14.7 °C 52.5 °F /  11.4 °C 29.9in /  1011.8hPa Oeste 2mph /  3.2km/h 5mph /  8km/h 81% 0in /  0.0mm
05:29 58.5 °F /  14.7 °C 52.5 °F /  11.4 °C 29.9in /  1011.8hPa Oeste 1.9mph /  3.1km/h 5mph /  8km/h 81% 0in /  0.0mm
05:34 58.3 °F /  14.6 °C 52.2 °F /  11.2 °C 29.9in /  1011.9hPa OSO 1.8mph /  2.9km/h 4mph /  6.4km/h 80.3% 0in /  0.0mm
05:39 58.3 °F /  14.6 °C 52.2 °F /  11.2 °C 29.9in /  1011.9hPa SSE 1.9mph /  3km/h 5mph /  8km/h 80% 0in /  0.0mm
05:44 57.9 °F /  14.4 °C 51.8 °F /  11 °C 29.9in /  1011.9hPa SSE 2mph /  3.2km/h 5mph /  8km/h 80% 0in /  0.0mm
05:49 57.7 °F /  14.3 °C 51.8 °F /  11 °C 29.9in /  1011.9hPa SSE 2.2mph /  3.5km/h 5mph /  8km/h 80.8% 0in /  0.0mm
05:54 57.6 °F /  14.2 °C 51.8 °F /  11 °C 29.9in /  1011.8hPa SSE 2.4mph /  3.9km/h 3.6mph /  5.8km/h 81% 0in /  0.0mm
05:59 57.6 °F /  14.2 °C 51.6 °F /  10.9 °C 29.9in /  1011.8hPa Sur 2.2mph /  3.6km/h 4.7mph /  7.6km/h 80.7% 0in /  0.0mm
06:04 57.6 °F /  14.2 °C 51.4 °F /  10.8 °C 29.9in /  1011.8hPa SO 2mph /  3.2km/h 5mph /  8km/h 80% 0in /  0.0mm
06:09 57.6 °F /  14.2 °C 51.4 °F /  10.8 °C 29.9in /  1011.8hPa SSO 2.2mph /  3.5km/h 5mph /  8km/h 80% 0in /  0.0mm
06:14 57.6 °F /  14.2 °C 51.8 °F /  11 °C 29.9in /  1011.8hPa Sur 2.4mph /  3.9km/h 6.9mph /  11.1km/h 80.8% 0in /  0.0mm
06:19 57.6 °F /  14.2 °C 51.6 °F /  10.9 °C 29.9in /  1011.9hPa Sur 3.2mph /  5.1km/h 8.1mph /  13km/h 81% 0in /  0.0mm
06:24 57.4 °F /  14.1 °C 51.4 °F /  10.8 °C 29.9in /  1011.9hPa Sur 4.7mph /  7.6km/h 9.2mph /  14.8km/h 81% 0in /  0.0mm
06:29 57.2 °F /  14 °C 51.1 °F /  10.6 °C 29.9in /  1011.9hPa SSO 5.3mph /  8.6km/h 9.2mph /  14.8km/h 80.2% 0in /  0.0mm
06:34 57 °F /  13.9 °C 50.7 °F /  10.4 °C 29.9in /  1012.1hPa SSO 6.4mph /  10.3km/h 10.7mph /  17.2km/h 79.6% 0in /  0.0mm
06:39 57 °F /  13.9 °C 50.7 °F /  10.4 °C 29.9in /  1012.1hPa SSO 6.6mph /  10.6km/h 11mph /  17.7km/h 79% 0in /  0.0mm
06:44 57.2 °F /  14 °C 50.5 °F /  10.3 °C 29.9in /  1012.1hPa SSO 6.9mph /  11.1km/h 10mph /  16.1km/h 78.3% 0in /  0.0mm
06:49 57.4 °F /  14.1 °C 50.5 °F /  10.3 °C 29.9in /  1012.1hPa SO 6.1mph /  9.8km/h 7.4mph /  11.9km/h 78% 0in /  0.0mm
06:54 57.6 °F /  14.2 °C 50.5 °F /  10.3 °C 29.9in /  1012.1hPa SSO 4.7mph /  7.6km/h 8.1mph /  13km/h 77.6% 0in /  0.0mm
06:59 57.6 °F /  14.2 °C 50.4 °F /  10.2 °C 29.9in /  1012.1hPa SSO 4.7mph /  7.6km/h 8.5mph /  13.7km/h 77% 0in /  0.0mm
07:04 57.6 °F /  14.2 °C 50 °F /  10 °C 29.9in /  1012.1hPa SO 4.7mph /  7.6km/h 9mph /  14.5km/h 76.2% 0in /  0.0mm
07:09 57.6 °F /  14.2 °C 50 °F /  10 °C 29.9in /  1012.1hPa SO 4.3mph /  6.9km/h 8mph /  12.9km/h 76% 0in /  0.0mm
07:14 57.6 °F /  14.2 °C 50 °F /  10 °C 29.9in /  1012.1hPa SSO 3.6mph /  5.8km/h 5.9mph /  9.5km/h 76% 0in /  0.0mm
07:19 57.6 °F /  14.2 °C 50 °F /  10 °C 29.9in /  1012.2hPa SSO 3.7mph /  6km/h 6.9mph /  11.1km/h 75.9% 0in /  0.0mm
07:24 57.6 °F /  14.2 °C 49.6 °F /  9.8 °C 29.9in /  1012.2hPa Sur 4mph /  6.5km/h 8.1mph /  13km/h 75% 0in /  0.0mm
07:29 57.4 °F /  14.1 °C 49.5 °F /  9.7 °C 29.9in /  1012.2hPa Sur 4.5mph /  7.2km/h 8.1mph /  13km/h 75% 0in /  0.0mm
07:34 57.4 °F /  14.1 °C 49.5 °F /  9.7 °C 29.9in /  1012.2hPa Sur 5.2mph /  8.4km/h 8.1mph /  13km/h 75% 0in /  0.0mm
07:39 57.2 °F /  14 °C 49.3 °F /  9.6 °C 29.9in /  1012.2hPa Sur 5.2mph /  8.4km/h 8.1mph /  13km/h 74.6% 0in /  0.0mm
07:44 57.4 °F /  14.1 °C 49.3 °F /  9.6 °C 29.9in /  1012.2hPa Sur 5.2mph /  8.4km/h 8mph /  12.9km/h 74.5% 0in /  0.0mm
07:49 57.4 °F /  14.1 °C 49.3 °F /  9.6 °C 29.9in /  1012.2hPa SSO 4.7mph /  7.6km/h 6.9mph /  11.1km/h 74.2% 0in /  0.0mm
07:54 57.6 °F /  14.2 °C 49.1 °F /  9.5 °C 29.9in /  1012.1hPa SSO 4mph /  6.5km/h 7.4mph /  11.9km/h 73.3% 0in /  0.0mm
07:59 57.7 °F /  14.3 °C 48.9 °F /  9.4 °C 29.9in /  1012.1hPa SSO 4mph /  6.5km/h 7mph /  11.3km/h 72.1% 0in /  0.0mm
08:04 58.3 °F /  14.6 °C 48.7 °F /  9.3 °C 29.9in /  1012.1hPa Sur 4mph /  6.5km/h 7.4mph /  11.9km/h 70.9% 0in /  0.0mm
08:09 58.6 °F /  14.8 °C 48.9 °F /  9.4 °C 29.9in /  1012.1hPa Sur 4.1mph /  6.6km/h 7mph /  11.3km/h 70.2% 0in /  0.0mm
08:14 58.8 °F /  14.9 °C 49.1 °F /  9.5 °C 29.9in /  1012.1hPa SSE 4.3mph /  6.9km/h 7.4mph /  11.9km/h 70% 0in /  0.0mm
08:19 59 °F /  15 °C 49.1 °F /  9.5 °C 29.9in /  1012.4hPa Sur 4.5mph /  7.2km/h 7mph /  11.3km/h 69.7% 0in /  0.0mm
08:24 59.2 °F /  15.1 °C 48.7 °F /  9.3 °C 29.9in /  1012.4hPa SSO 4.7mph /  7.6km/h 7.4mph /  11.9km/h 68.2% 0in /  0.0mm
08:29 59.4 °F /  15.2 °C 48.9 °F /  9.4 °C 29.9in /  1012.4hPa Sur 4.5mph /  7.2km/h 7mph /  11.3km/h 67.9% 0in /  0.0mm
08:34 59.7 °F /  15.4 °C 48.6 °F /  9.2 °C 29.9in /  1012.7hPa Sur 4mph /  6.5km/h 6mph /  9.7km/h 66.7% 0in /  0.0mm
08:39 60.1 °F /  15.6 °C 48.2 °F /  9 °C 29.9in /  1012.7hPa SO 3.7mph /  5.9km/h 5.2mph /  8.4km/h 64.9% 0in /  0.0mm
08:44 60.3 °F /  15.7 °C 47.8 °F /  8.8 °C 29.9in /  1012.7hPa SSO 3.1mph /  5km/h 5.2mph /  8.4km/h 63.3% 0in /  0.0mm
08:49 60.6 °F /  15.9 °C 47.3 °F /  8.5 °C 29.9in /  1012.7hPa Sur 3.1mph /  5km/h 5mph /  8km/h 61.4% 0in /  0.0mm
08:54 60.8 °F /  16 °C 47.5 °F /  8.6 °C 29.9in /  1012.5hPa SSE 3.1mph /  5km/h 6.2mph /  10km/h 61.3% 0in /  0.0mm
08:59 61 °F /  16.1 °C 47.5 °F /  8.6 °C 29.9in /  1012.5hPa Sur 3.5mph /  5.7km/h 6.9mph /  11.1km/h 61.2% 0in /  0.0mm
09:04 61 °F /  16.1 °C 47.8 °F /  8.8 °C 29.9in /  1012.6hPa SSE 4mph /  6.5km/h 7.4mph /  11.9km/h 61.8% 0in /  0.0mm
09:09 61.2 °F /  16.2 °C 47.1 °F /  8.4 °C 29.9in /  1012.6hPa SSE 4.5mph /  7.2km/h 8.1mph /  13km/h 59.7% 0in /  0.0mm
09:14 61.5 °F /  16.4 °C 46.9 °F /  8.3 °C 29.9in /  1012.6hPa SSO 5.2mph /  8.4km/h 8mph /  12.9km/h 58.9% 0in /  0.0mm
09:19 61.9 °F /  16.6 °C 47.5 °F /  8.6 °C 29.9in /  1012.6hPa SSE 4.4mph /  7.1km/h 6mph /  9.7km/h 58.9% 0in /  0.0mm
09:24 62.2 °F /  16.8 °C 47.1 °F /  8.4 °C 29.9in /  1012.6hPa OSO 3.1mph /  5km/h 4.7mph /  7.6km/h 57.6% 0in /  0.0mm
09:29 62.4 °F /  16.9 °C 46.9 °F /  8.3 °C 29.9in /  1012.6hPa ONO 2.9mph /  4.6km/h 5mph /  8km/h 56.8% 0in /  0.0mm
09:34 62.8 °F /  17.1 °C 47.1 °F /  8.4 °C 29.9in /  1012.6hPa NO 2.4mph /  3.9km/h 5mph /  8km/h 56.6% 0in /  0.0mm
09:39 63.1 °F /  17.3 °C 47.1 °F /  8.4 °C 29.9in /  1012.6hPa NO 2.2mph /  3.5km/h 4mph /  6.4km/h 56% 0in /  0.0mm
09:44 63.7 °F /  17.6 °C 47.3 °F /  8.5 °C 29.9in /  1012.6hPa NNO 1.8mph /  2.9km/h 3.6mph /  5.8km/h 55.3% 0in /  0.0mm
09:49 64.4 °F /  18 °C 46.9 °F /  8.3 °C 29.9in /  1012.6hPa NNO 1.9mph /  3km/h 6.2mph /  10km/h 53.2% 0in /  0.0mm
09:54 64.8 °F /  18.2 °C 47.1 °F /  8.4 °C 29.9in /  1012.6hPa NNO 2mph /  3.2km/h 6mph /  9.7km/h 52.8% 0in /  0.0mm
09:59 64.9 °F /  18.3 °C 47.1 °F /  8.4 °C 29.9in /  1012.6hPa North 2.4mph /  3.9km/h 5mph /  8km/h 52.4% 0in /  0.0mm
10:04 65.5 °F /  18.6 °C 47.5 °F /  8.6 °C 29.9in /  1012.7hPa North 2.9mph /  4.6km/h 5.8mph /  9.3km/h 52.2% 0in /  0.0mm
10:09 65.7 °F /  18.7 °C 47.7 °F /  8.7 °C 29.9in /  1012.7hPa North 2.9mph /  4.7km/h 6.9mph /  11.1km/h 52.2% 0in /  0.0mm
10:14 66 °F /  18.9 °C 47.3 °F /  8.5 °C 29.9in /  1012.7hPa NNE 2.9mph /  4.7km/h 10.2mph /  16.4km/h 51% 0in /  0.0mm
10:19 66 °F /  18.9 °C 47.5 °F /  8.6 °C 29.9in /  1013.0hPa NE 3.7mph /  6km/h 10mph /  16.1km/h 51.2% 0in /  0.0mm
10:24 66.4 °F /  19.1 °C 47.5 °F /  8.6 °C 29.9in /  1013.0hPa NNE 5.2mph /  8.4km/h 10.4mph /  16.7km/h 50.4% 0in /  0.0mm
10:29 66.4 °F /  19.1 °C 47.1 °F /  8.4 °C 29.9in /  1013.0hPa NE 5.7mph /  9.1km/h 14mph /  22.5km/h 49.9% 0in /  0.0mm
10:34 66.6 °F /  19.2 °C 47.1 °F /  8.4 °C 29.9in /  1013.2hPa NE 6.4mph /  10.3km/h 14mph /  22.5km/h 49.8% 0in /  0.0mm
10:39 66.7 °F /  19.3 °C 47.5 °F /  8.6 °C 29.9in /  1013.2hPa NE 6.8mph /  11km/h 14mph /  22.5km/h 50% 0in /  0.0mm
10:44 66.7 °F /  19.3 °C 48 °F /  8.9 °C 29.9in /  1013.2hPa NE 7.6mph /  12.2km/h 14mph /  22.5km/h 50.8% 0in /  0.0mm
10:49 66.9 °F /  19.4 °C 48.2 °F /  9 °C 29.9in /  1013.4hPa NE 7.6mph /  12.2km/h 13.8mph /  22.2km/h 51% 0in /  0.0mm
10:54 67.3 °F /  19.6 °C 48.6 °F /  9.2 °C 29.9in /  1013.4hPa ENE 7.6mph /  12.2km/h 14mph /  22.5km/h 51.4% 0in /  0.0mm
10:59 67.6 °F /  19.8 °C 49.5 °F /  9.7 °C 29.9in /  1013.4hPa ENE 7.5mph /  12.1km/h 13.8mph /  22.2km/h 52.2% 0in /  0.0mm
11:04 68.2 °F /  20.1 °C 49.8 °F /  9.9 °C 29.9in /  1013.5hPa ENE 7.4mph /  11.9km/h 14mph /  22.5km/h 52% 0in /  0.0mm
11:09 68 °F /  20 °C 50.4 °F /  10.2 °C 29.9in /  1013.5hPa NE 7.6mph /  12.3km/h 15mph /  24.1km/h 53.2% 0in /  0.0mm
11:14 67.8 °F /  19.9 °C 50.5 °F /  10.3 °C 29.9in /  1013.5hPa NE 8.1mph /  13km/h 16.1mph /  25.9km/h 54% 0in /  0.0mm
11:19 68 °F /  20 °C 49.5 °F /  9.7 °C 29.9in /  1013.6hPa NE 8mph /  12.8km/h 17.8mph /  28.6km/h 51.7% 0in /  0.0mm
11:24 68.2 °F /  20.1 °C 48.6 °F /  9.2 °C 29.9in /  1013.6hPa NE 7.6mph /  12.2km/h 18.4mph /  29.6km/h 49.5% 0in /  0.0mm
11:29 68.4 °F /  20.2 °C 47.8 °F /  8.8 °C 29.9in /  1013.6hPa NE 8.4mph /  13.6km/h 16mph /  25.7km/h 47.8% 0in /  0.0mm
11:34 68.9 °F /  20.5 °C 47.7 °F /  8.7 °C 29.9in /  1013.6hPa NE 10mph /  16.1km/h 15mph /  24.1km/h 46.9% 0in /  0.0mm
11:39 69.1 °F /  20.6 °C 47.5 °F /  8.6 °C 29.9in /  1013.5hPa NE 9.9mph /  15.9km/h 15mph /  24.1km/h 46% 0in /  0.0mm
11:44 69.4 °F /  20.8 °C 47.8 °F /  8.8 °C 29.9in /  1013.5hPa ENE 9.7mph /  15.6km/h 15mph /  24.1km/h 46.2% 0in /  0.0mm
11:49 69.4 °F /  20.8 °C 47.8 °F /  8.8 °C 29.9in /  1013.6hPa NE 9.3mph /  14.9km/h 15mph /  24.1km/h 46% 0in /  0.0mm
11:54 69.6 °F /  20.9 °C 47.8 °F /  8.8 °C 29.9in /  1013.6hPa NE 8.5mph /  13.7km/h 16.8mph /  27km/h 45.9% 0in /  0.0mm
11:59 69.6 °F /  20.9 °C 47.3 °F /  8.5 °C 29.9in /  1013.6hPa ENE 8.8mph /  14.2km/h 17.3mph /  27.8km/h 45.1% 0in /  0.0mm
12:04 69.4 °F /  20.8 °C 47.3 °F /  8.5 °C 29.9in /  1013.6hPa NE 9.2mph /  14.8km/h 17mph /  27.4km/h 45% 0in /  0.0mm
12:09 70 °F /  21.1 °C 47.3 °F /  8.5 °C 29.9in /  1013.4hPa NE 8.9mph /  14.4km/h 17.3mph /  27.8km/h 44.4% 0in /  0.0mm
12:14 70.2 °F /  21.2 °C 46.9 °F /  8.3 °C 29.9in /  1013.4hPa ENE 8.5mph /  13.7km/h 17mph /  27.4km/h 43.5% 0in /  0.0mm
12:19 70.3 °F /  21.3 °C 47.3 °F /  8.5 °C 29.9in /  1013.4hPa NE 8.6mph /  13.8km/h 17.5mph /  28.2km/h 43.8% 0in /  0.0mm
12:24 70.3 °F /  21.3 °C 47.3 °F /  8.5 °C 29.9in /  1013.3hPa NE 8.7mph /  14km/h 17mph /  27.4km/h 44% 0in /  0.0mm
12:29 70.2 °F /  21.2 °C 47.3 °F /  8.5 °C 29.9in /  1013.3hPa NE 8.7mph /  14km/h 15mph /  24.1km/h 44% 0in /  0.0mm
12:34 70.2 °F /  21.2 °C 47.3 °F /  8.5 °C 29.9in /  1013.3hPa NE 8.7mph /  14km/h 15mph /  24.1km/h 44.3% 0in /  0.0mm
12:39 70.2 °F /  21.2 °C 47.5 °F /  8.6 °C 29.9in /  1013.2hPa NE 9.1mph /  14.6km/h 15mph /  24.1km/h 44.4% 0in /  0.0mm
12:44 70 °F /  21.1 °C 47.3 °F /  8.5 °C 29.9in /  1013.2hPa NE 9.7mph /  15.6km/h 16.1mph /  25.9km/h 44.3% 0in /  0.0mm
12:49 70.2 °F /  21.2 °C 47.5 °F /  8.6 °C 29.9in /  1013.2hPa NNE 9.5mph /  15.3km/h 17.5mph /  28.2km/h 44.4% 0in /  0.0mm
12:54 70.5 °F /  21.4 °C 47.1 °F /  8.4 °C 29.9in /  1013.1hPa NNE 9.2mph /  14.8km/h 17.3mph /  27.8km/h 43.5% 0in /  0.0mm
12:59 70.7 °F /  21.5 °C 47.1 °F /  8.4 °C 29.9in /  1013.1hPa NNE 8.9mph /  14.4km/h 17mph /  27.4km/h 43% 0in /  0.0mm
13:04 70.7 °F /  21.5 °C 46.6 °F /  8.1 °C 29.9in /  1013.1hPa NE 8.7mph /  14km/h 17mph /  27.4km/h 42.1% 0in /  0.0mm
13:09 70.7 °F /  21.5 °C 46.6 °F /  8.1 °C 29.9in /  1012.9hPa NE 9.1mph /  14.6km/h 17.3mph /  27.8km/h 42% 0in /  0.0mm
13:14 71.1 °F /  21.7 °C 46.4 °F /  8 °C 29.9in /  1012.9hPa NE 9.7mph /  15.6km/h 17.5mph /  28.2km/h 41.6% 0in /  0.0mm
13:19 71.1 °F /  21.7 °C 46 °F /  7.8 °C 29.9in /  1012.9hPa NE 9.7mph /  15.6km/h 18.4mph /  29.6km/h 40.9% 0in /  0.0mm
13:24 70.9 °F /  21.6 °C 46 °F /  7.8 °C 29.9in /  1012.8hPa NE 9.7mph /  15.6km/h 18mph /  29km/h 41% 0in /  0.0mm
13:29 70.7 °F /  21.5 °C 45.7 °F /  7.6 °C 29.9in /  1012.8hPa NE 10.3mph /  16.5km/h 18.4mph /  29.6km/h 40.7% 0in /  0.0mm
13:34 71.2 °F /  21.8 °C 46.6 °F /  8.1 °C 29.9in /  1012.8hPa NE 11.2mph /  18km/h 18mph /  29km/h 41.4% 0in /  0.0mm
13:39 71.4 °F /  21.9 °C 45.9 °F /  7.7 °C 29.9in /  1012.6hPa NE 10.3mph /  16.5km/h 18.4mph /  29.6km/h 40% 0in /  0.0mm
13:44 71.6 °F /  22 °C 46.2 °F /  7.9 °C 29.9in /  1012.6hPa ENE 8.5mph /  13.7km/h 18mph /  29km/h 40.5% 0in /  0.0mm
13:49 71.6 °F /  22 °C 46 °F /  7.8 °C 29.9in /  1012.6hPa NE 8.9mph /  14.4km/h 16mph /  25.7km/h 40% 0in /  0.0mm
13:54 71.6 °F /  22 °C 45.9 °F /  7.7 °C 29.9in /  1012.2hPa NE 9.7mph /  15.6km/h 16.8mph /  27km/h 39.8% 0in /  0.0mm
13:59 71.6 °F /  22 °C 46 °F /  7.8 °C 29.9in /  1012.2hPa NE 9.9mph /  16km/h 18.4mph /  29.6km/h 40.2% 0in /  0.0mm
14:04 72 °F /  22.2 °C 46.2 °F /  7.9 °C 29.9in /  1012.3hPa ENE 10.2mph /  16.4km/h 21.3mph /  34.3km/h 39.8% 0in /  0.0mm
14:09 72 °F /  22.2 °C 45.9 °F /  7.7 °C 29.9in /  1012.3hPa NE 9.8mph /  15.8km/h 21mph /  33.8km/h 39.2% 0in /  0.0mm
14:14 71.4 °F /  21.9 °C 45.7 °F /  7.6 °C 29.9in /  1012.3hPa NE 9.2mph /  14.8km/h 17mph /  27.4km/h 39.6% 0in /  0.0mm
14:19 71.8 °F /  22.1 °C 45 °F /  7.2 °C 29.9in /  1012.3hPa NE 9mph /  14.5km/h 15.2mph /  24.5km/h 38.3% 0in /  0.0mm
14:24 72 °F /  22.2 °C 45.7 °F /  7.6 °C 29.9in /  1012.1hPa NE 8.7mph /  14km/h 18.4mph /  29.6km/h 39% 0in /  0.0mm
14:29 72 °F /  22.2 °C 45.5 °F /  7.5 °C 29.9in /  1012.1hPa ENE 9.1mph /  14.6km/h 18mph /  29km/h 38.8% 0in /  0.0mm
14:34 72.1 °F /  22.3 °C 46 °F /  7.8 °C 29.9in /  1012.1hPa NE 9.7mph /  15.6km/h 15.2mph /  24.5km/h 39.5% 0in /  0.0mm
14:39 72.5 °F /  22.5 °C 46.2 °F /  7.9 °C 29.9in /  1011.9hPa NE 9.3mph /  14.9km/h 19mph /  30.6km/h 39.1% 0in /  0.0mm
14:44 72.7 °F /  22.6 °C 45.5 °F /  7.5 °C 29.9in /  1011.9hPa NE 8.5mph /  13.7km/h 19mph /  30.6km/h 37.9% 0in /  0.0mm
14:49 72.3 °F /  22.4 °C 45.3 °F /  7.4 °C 29.9in /  1011.9hPa ENE 9.6mph /  15.4km/h 19mph /  30.6km/h 38.1% 0in /  0.0mm
14:54 72.3 °F /  22.4 °C 45.5 °F /  7.5 °C 29.9in /  1011.7hPa ENE 11.4mph /  18.4km/h 16.1mph /  25.9km/h 38.3% 0in /  0.0mm
14:59 72.5 °F /  22.5 °C 45.5 °F /  7.5 °C 29.9in /  1011.7hPa NE 9.3mph /  14.9km/h 16.1mph /  25.9km/h 38% 0in /  0.0mm
15:04 72.3 °F /  22.4 °C 45.3 °F /  7.4 °C 29.9in /  1011.7hPa NE 6.9mph /  11.1km/h 16.1mph /  25.9km/h 38% 0in /  0.0mm
15:09 72.3 °F /  22.4 °C 45.3 °F /  7.4 °C 29.9in /  1011.5hPa ENE 7.6mph /  12.2km/h 16mph /  25.7km/h 38% 0in /  0.0mm
15:14 72.1 °F /  22.3 °C 45.1 °F /  7.3 °C 29.9in /  1011.5hPa NE 8.7mph /  14km/h 16.3mph /  26.2km/h 37.9% 0in /  0.0mm
15:19 72 °F /  22.2 °C 44.8 °F /  7.1 °C 29.9in /  1011.5hPa NE 8.7mph /  14km/h 16mph /  25.7km/h 37.8% 0in /  0.0mm
15:24 72.1 °F /  22.3 °C 45.5 °F /  7.5 °C 29.9in /  1011.5hPa ENE 8.7mph /  14km/h 17mph /  27.4km/h 38.5% 0in /  0.0mm
15:29 72.1 °F /  22.3 °C 45 °F /  7.2 °C 29.9in /  1011.5hPa ENE 8.6mph /  13.9km/h 17mph /  27.4km/h 37.7% 0in /  0.0mm
15:34 72 °F /  22.2 °C 45 °F /  7.2 °C 29.9in /  1011.5hPa ENE 8.5mph /  13.7km/h 15mph /  24.1km/h 38% 0in /  0.0mm
15:39 71.8 °F /  22.1 °C 44.2 °F /  6.8 °C 29.9in /  1011.3hPa ENE 8.8mph /  14.1km/h 16.1mph /  25.9km/h 37.4% 0in /  0.0mm
15:44 71.2 °F /  21.8 °C 44.2 °F /  6.8 °C 29.9in /  1011.3hPa ENE 9.2mph /  14.8km/h 17.3mph /  27.8km/h 37.7% 0in /  0.0mm
15:49 71.2 °F /  21.8 °C 44.4 °F /  6.9 °C 29.9in /  1011.3hPa ENE 9.2mph /  14.8km/h 17mph /  27.4km/h 38.1% 0in /  0.0mm
15:54 71.2 °F /  21.8 °C 44.1 °F /  6.7 °C 29.9in /  1011.3hPa ENE 9.2mph /  14.8km/h 16.3mph /  26.2km/h 37.5% 0in /  0.0mm
15:59 71.4 °F /  21.9 °C 44.4 °F /  6.9 °C 29.9in /  1011.3hPa ENE 8.4mph /  13.6km/h 16mph /  25.7km/h 37.9% 0in /  0.0mm
16:04 71.2 °F /  21.8 °C 44.4 °F /  6.9 °C 29.9in /  1011.3hPa NE 7.6mph /  12.2km/h 17.8mph /  28.6km/h 38% 0in /  0.0mm
16:09 70.9 °F /  21.6 °C 44.4 °F /  6.9 °C 29.9in /  1011.3hPa NE 8.4mph /  13.6km/h 18.4mph /  29.6km/h 38.6% 0in /  0.0mm
16:14 70.7 °F /  21.5 °C 44.6 °F /  7 °C 29.9in /  1011.3hPa NE 10mph /  16.1km/h 18mph /  29km/h 39.1% 0in /  0.0mm
16:19 70.3 °F /  21.3 °C 44.2 °F /  6.8 °C 29.9in /  1011.5hPa NE 9.7mph /  15.6km/h 16.1mph /  25.9km/h 39% 0in /  0.0mm
16:24 70.3 °F /  21.3 °C 43.7 °F /  6.5 °C 29.9in /  1011.5hPa ENE 9.2mph /  14.8km/h 16.3mph /  26.2km/h 38.3% 0in /  0.0mm
16:29 70.3 °F /  21.3 °C 44.1 °F /  6.7 °C 29.9in /  1011.5hPa NE 9.4mph /  15.1km/h 16.1mph /  25.9km/h 38.9% 0in /  0.0mm
16:34 70.3 °F /  21.3 °C 43.5 °F /  6.4 °C 29.9in /  1011.5hPa NE 9.7mph /  15.6km/h 16mph /  25.7km/h 38% 0in /  0.0mm
16:39 70.3 °F /  21.3 °C 43.7 °F /  6.5 °C 29.9in /  1011.5hPa ENE 8.9mph /  14.3km/h 15mph /  24.1km/h 38.4% 0in /  0.0mm
16:44 70.3 °F /  21.3 °C 43.5 °F /  6.4 °C 29.9in /  1011.5hPa NE 7.4mph /  11.9km/h 15mph /  24.1km/h 37.9% 0in /  0.0mm
16:49 70.2 °F /  21.2 °C 44.2 °F /  6.8 °C 29.9in /  1011.5hPa ENE 7.6mph /  12.3km/h 15.2mph /  24.5km/h 39.6% 0in /  0.0mm
16:54 69.6 °F /  20.9 °C 44.2 °F /  6.8 °C 29.9in /  1011.4hPa ENE 8.1mph /  13km/h 15.2mph /  24.5km/h 40% 0in /  0.0mm
16:59 69.8 °F /  21 °C 44.6 °F /  7 °C 29.9in /  1011.4hPa Este 8.1mph /  13km/h 15.2mph /  24.5km/h 40.3% 0in /  0.0mm
17:04 70.2 °F /  21.2 °C 44.6 °F /  7 °C 29.9in /  1011.4hPa NE 8.1mph /  13km/h 16.1mph /  25.9km/h 39.8% 0in /  0.0mm
17:09 70.2 °F /  21.2 °C 44.4 °F /  6.9 °C 29.9in /  1011.4hPa ENE 8.5mph /  13.7km/h 16.1mph /  25.9km/h 39.7% 0in /  0.0mm
17:14 70 °F /  21.1 °C 44.1 °F /  6.7 °C 29.9in /  1011.4hPa ENE 9.2mph /  14.8km/h 17.3mph /  27.8km/h 39.2% 0in /  0.0mm
17:19 70 °F /  21.1 °C 43.9 °F /  6.6 °C 29.9in /  1011.4hPa ENE 9mph /  14.5km/h 17mph /  27.4km/h 39.1% 0in /  0.0mm
17:24 69.8 °F /  21 °C 44.1 °F /  6.7 °C 29.9in /  1011.2hPa ENE 8.7mph /  14km/h 17.3mph /  27.8km/h 39.4% 0in /  0.0mm
17:29 69.8 °F /  21 °C 44.4 °F /  6.9 °C 29.9in /  1011.2hPa ENE 9.1mph /  14.6km/h 17mph /  27.4km/h 40% 0in /  0.0mm
17:34 70 °F /  21.1 °C 44.4 °F /  6.9 °C 29.9in /  1011.2hPa ENE 9.7mph /  15.6km/h 19.2mph /  30.9km/h 40% 0in /  0.0mm
17:39 70.2 °F /  21.2 °C 45.5 °F /  7.5 °C 29.9in /  1011.1hPa Este 9.7mph /  15.6km/h 20mph /  32.2km/h 41.3% 0in /  0.0mm
17:44 69.8 °F /  21 °C 45.7 °F /  7.6 °C 29.9in /  1011.1hPa ENE 9.7mph /  15.6km/h 20.4mph /  32.8km/h 42% 0in /  0.0mm
17:49 69.6 °F /  20.9 °C 45 °F /  7.2 °C 29.9in /  1011.1hPa Este 10.5mph /  16.9km/h 21mph /  33.8km/h 41% 0in /  0.0mm
17:54 69.8 °F /  21 °C 44.2 °F /  6.8 °C 29.9in /  1011.1hPa ENE 11.8mph /  19km/h 21mph /  33.8km/h 40% 0in /  0.0mm
17:59 70 °F /  21.1 °C 44.2 °F /  6.8 °C 29.9in /  1011.1hPa Este 10.9mph /  17.6km/h 20.8mph /  33.5km/h 39.7% 0in /  0.0mm
18:04 69.4 °F /  20.8 °C 44.1 °F /  6.7 °C 29.9in /  1011.1hPa ENE 10mph /  16.1km/h 21mph /  33.8km/h 39.8% 0in /  0.0mm
18:09 69.4 °F /  20.8 °C 44.6 °F /  7 °C 29.9in /  1011.1hPa ENE 9.8mph /  15.7km/h 19mph /  30.6km/h 40.6% 0in /  0.0mm
18:14 69.3 °F /  20.7 °C 44.1 °F /  6.7 °C 29.9in /  1011.1hPa NE 9.2mph /  14.8km/h 20.8mph /  33.5km/h 40.1% 0in /  0.0mm
18:19 68.9 °F /  20.5 °C 43.7 °F /  6.5 °C 29.9in /  1011.4hPa ENE 9.4mph /  15.2km/h 21mph /  33.8km/h 40.2% 0in /  0.0mm
18:24 68.5 °F /  20.3 °C 44.4 °F /  6.9 °C 29.9in /  1011.4hPa NE 10mph /  16.1km/h 18.4mph /  29.6km/h 41.8% 0in /  0.0mm
18:29 68.2 °F /  20.1 °C 44.1 °F /  6.7 °C 29.9in /  1011.4hPa NE 9.7mph /  15.6km/h 18mph /  29km/h 41.7% 0in /  0.0mm
18:34 68.2 °F /  20.1 °C 44.8 °F /  7.1 °C 29.9in /  1011.7hPa ENE 9.2mph /  14.8km/h 17.3mph /  27.8km/h 43% 0in /  0.0mm
18:39 68 °F /  20 °C 45 °F /  7.2 °C 29.9in /  1011.7hPa ENE 9.2mph /  14.8km/h 17mph /  27.4km/h 43.6% 0in /  0.0mm
18:44 68.2 °F /  20.1 °C 45.3 °F /  7.4 °C 29.9in /  1011.7hPa ENE 9.2mph /  14.8km/h 15.2mph /  24.5km/h 44% 0in /  0.0mm
18:49 68.2 °F /  20.1 °C 46.2 °F /  7.9 °C 29.9in /  1011.7hPa NE 9mph /  14.5km/h 16.1mph /  25.9km/h 45.4% 0in /  0.0mm
18:54 68.4 °F /  20.2 °C 46.4 °F /  8 °C 29.9in /  1011.5hPa NE 8.7mph /  14km/h 20.1mph /  32.3km/h 45.3% 0in /  0.0mm
18:59 68 °F /  20 °C 46.6 °F /  8.1 °C 29.9in /  1011.5hPa NE 9.3mph /  15km/h 21mph /  33.8km/h 46.2% 0in /  0.0mm
19:04 67.6 °F /  19.8 °C 46.9 °F /  8.3 °C 29.9in /  1011.6hPa NE 10mph /  16.1km/h 19mph /  30.6km/h 47.4% 0in /  0.0mm
19:09 67.6 °F /  19.8 °C 46.8 °F /  8.2 °C 29.9in /  1011.6hPa NE 10.1mph /  16.2km/h 18.4mph /  29.6km/h 47.1% 0in /  0.0mm
19:14 67.6 °F /  19.8 °C 46.8 °F /  8.2 °C 29.9in /  1011.6hPa NE 10.2mph /  16.4km/h 16.1mph /  25.9km/h 47.2% 0in /  0.0mm
19:19 67.5 °F /  19.7 °C 46.9 °F /  8.3 °C 29.9in /  1011.9hPa NE 9.8mph /  15.8km/h 16mph /  25.7km/h 47.8% 0in /  0.0mm
19:24 67.5 °F /  19.7 °C 46.8 °F /  8.2 °C 29.9in /  1011.9hPa ENE 9.2mph /  14.8km/h 16.3mph /  26.2km/h 47.3% 0in /  0.0mm
19:29 67.5 °F /  19.7 °C 46.8 °F /  8.2 °C 29.9in /  1011.9hPa ENE 8.8mph /  14.2km/h 16mph /  25.7km/h 47.2% 0in /  0.0mm
19:34 67.5 °F /  19.7 °C 46.9 °F /  8.3 °C 29.9in /  1012.1hPa ENE 8.1mph /  13km/h 15mph /  24.1km/h 47.6% 0in /  0.0mm
19:39 67.3 °F /  19.6 °C 46.8 °F /  8.2 °C 29.9in /  1012.1hPa NE 8.3mph /  13.4km/h 15mph /  24.1km/h 47.7% 0in /  0.0mm
19:44 67.1 °F /  19.5 °C 46.8 °F /  8.2 °C 29.9in /  1012.1hPa NE 8.7mph /  14km/h 15.2mph /  24.5km/h 48.2% 0in /  0.0mm
19:49 66.9 °F /  19.4 °C 47.1 °F /  8.4 °C 29.9in /  1012.1hPa NE 8.6mph /  13.9km/h 16.1mph /  25.9km/h 49% 0in /  0.0mm
19:54 66.6 °F /  19.2 °C 46.8 °F /  8.2 °C 29.9in /  1011.9hPa NE 8.5mph /  13.7km/h 17.3mph /  27.8km/h 49% 0in /  0.0mm
19:59 66.4 °F /  19.1 °C 46.9 °F /  8.3 °C 29.9in /  1011.9hPa NE 8.8mph /  14.2km/h 17.3mph /  27.8km/h 49.6% 0in /  0.0mm
20:04 66 °F /  18.9 °C 46.8 °F /  8.2 °C 29.9in /  1011.9hPa NE 9.2mph /  14.8km/h 17mph /  27.4km/h 50% 0in /  0.0mm
20:09 65.8 °F /  18.8 °C 46.9 °F /  8.3 °C 29.9in /  1011.9hPa NE 9.5mph /  15.3km/h 16.1mph /  25.9km/h 50.3% 0in /  0.0mm
20:14 65.8 °F /  18.8 °C 47.1 °F /  8.4 °C 29.9in /  1011.9hPa NE 10mph /  16.1km/h 16.1mph /  25.9km/h 50.8% 0in /  0.0mm
20:19 65.7 °F /  18.7 °C 47.1 °F /  8.4 °C 29.9in /  1011.9hPa NE 9.4mph /  15.2km/h 16mph /  25.7km/h 51.1% 0in /  0.0mm
20:24 65.7 °F /  18.7 °C 47.5 °F /  8.6 °C 29.9in /  1011.9hPa ENE 8.5mph /  13.7km/h 14mph /  22.5km/h 52% 0in /  0.0mm
20:29 65.5 °F /  18.6 °C 47.7 °F /  8.7 °C 29.9in /  1011.9hPa ENE 7.7mph /  12.4km/h 12mph /  19.3km/h 52.4% 0in /  0.0mm
20:34 65.3 °F /  18.5 °C 47.7 °F /  8.7 °C 29.9in /  1012.2hPa NE 6.2mph /  10km/h 11.5mph /  18.5km/h 53% 0in /  0.0mm
20:39 65.1 °F /  18.4 °C 47.8 °F /  8.8 °C 29.9in /  1012.2hPa NE 6.3mph /  10.1km/h 12mph /  19.3km/h 53.4% 0in /  0.0mm
20:44 64.9 °F /  18.3 °C 48.2 °F /  9 °C 29.9in /  1012.2hPa NE 6.4mph /  10.3km/h 12mph /  19.3km/h 54.7% 0in /  0.0mm
20:49 64.8 °F /  18.2 °C 49.1 °F /  9.5 °C 29.9in /  1012.2hPa NE 6.8mph /  10.9km/h 13mph /  20.9km/h 56.6% 0in /  0.0mm
20:54 64.6 °F /  18.1 °C 49.3 °F /  9.6 °C 29.9in /  1012.1hPa NE 7.4mph /  11.9km/h 13mph /  20.9km/h 57.4% 0in /  0.0mm
20:59 64.2 °F /  17.9 °C 49.6 °F /  9.8 °C 29.9in /  1012.1hPa NE 6.7mph /  10.8km/h 9.7mph /  15.6km/h 58.8% 0in /  0.0mm
21:04 64 °F /  17.8 °C 50 °F /  10 °C 29.9in /  1012.2hPa NE 5.9mph /  9.5km/h 10.4mph /  16.7km/h 60% 0in /  0.0mm
21:09 64 °F /  17.8 °C 50.2 °F /  10.1 °C 29.9in /  1012.2hPa NE 6.1mph /  9.8km/h 13mph /  20.9km/h 60.7% 0in /  0.0mm
21:14 63.9 °F /  17.7 °C 50.2 °F /  10.1 °C 29.9in /  1012.2hPa NE 6.4mph /  10.3km/h 13mph /  20.9km/h 61.3% 0in /  0.0mm
21:19 63.7 °F /  17.6 °C 50.5 °F /  10.3 °C 29.9in /  1012.3hPa NE 6.8mph /  11km/h 12mph /  19.3km/h 62.1% 0in /  0.0mm
21:24 63.5 °F /  17.5 °C 50.9 °F /  10.5 °C 29.9in /  1012.3hPa NE 7.6mph /  12.2km/h 12mph /  19.3km/h 63.2% 0in /  0.0mm
21:29 63.3 °F /  17.4 °C 51.1 °F /  10.6 °C 29.9in /  1012.3hPa NE 7mph /  11.3km/h 11.8mph /  19km/h 64.4% 0in /  0.0mm
21:34 63.3 °F /  17.4 °C 51.3 °F /  10.7 °C 29.9in /  1012.3hPa NE 5.9mph /  9.5km/h 12mph /  19.3km/h 65% 0in /  0.0mm
21:39 63.1 °F /  17.3 °C 51.4 °F /  10.8 °C 29.9in /  1012.3hPa NE 6.3mph /  10.1km/h 13mph /  20.9km/h 66% 0in /  0.0mm
21:44 63 °F /  17.2 °C 51.6 °F /  10.9 °C 29.9in /  1012.3hPa NE 6.9mph /  11.1km/h 13mph /  20.9km/h 66.8% 0in /  0.0mm
21:49 62.6 °F /  17 °C 51.8 °F /  11 °C 29.9in /  1012.6hPa NE 7.1mph /  11.4km/h 13mph /  20.9km/h 67.8% 0in /  0.0mm
21:54 62.4 °F /  16.9 °C 52 °F /  11.1 °C 29.9in /  1012.6hPa NE 7.4mph /  11.9km/h 13mph /  20.9km/h 68.6% 0in /  0.0mm
21:59 62.2 °F /  16.8 °C 52 °F /  11.1 °C 29.9in /  1012.6hPa NE 6.7mph /  10.8km/h 11mph /  17.7km/h 69% 0in /  0.0mm
22:04 62.2 °F /  16.8 °C 52 °F /  11.1 °C 29.9in /  1012.7hPa NE 5.9mph /  9.5km/h 8.1mph /  13km/h 69% 0in /  0.0mm
22:09 62.2 °F /  16.8 °C 52 °F /  11.1 °C 29.9in /  1012.7hPa NE 5.5mph /  8.8km/h 8.5mph /  13.7km/h 69.2% 0in /  0.0mm
22:14 62.1 °F /  16.7 °C 52.2 °F /  11.2 °C 29.9in /  1012.7hPa NE 4.7mph /  7.6km/h 9mph /  14.5km/h 70% 0in /  0.0mm
22:19 62.1 °F /  16.7 °C 52.2 °F /  11.2 °C 29.9in /  1012.7hPa ENE 4.7mph /  7.6km/h 8.1mph /  13km/h 70% 0in /  0.0mm
22:24 61.9 °F /  16.6 °C 52 °F /  11.1 °C 29.9in /  1012.6hPa ENE 4.7mph /  7.6km/h 8mph /  12.9km/h 70% 0in /  0.0mm
22:29 61.7 °F /  16.5 °C 52.2 °F /  11.2 °C 29.9in /  1012.6hPa NE 4.3mph /  7km/h 6.9mph /  11.1km/h 70.9% 0in /  0.0mm
22:34 61.5 °F /  16.4 °C 52.3 °F /  11.3 °C 29.9in /  1012.9hPa NE 3.6mph /  5.8km/h 7mph /  11.3km/h 71.8% 0in /  0.0mm
22:39 61.3 °F /  16.3 °C 52.5 °F /  11.4 °C 29.9in /  1012.9hPa NE 3.9mph /  6.2km/h 8.1mph /  13km/h 72.5% 0in /  0.0mm
22:44 61.2 °F /  16.2 °C 52.5 °F /  11.4 °C 29.9in /  1012.9hPa NE 4.3mph /  6.9km/h 8.1mph /  13km/h 73.3% 0in /  0.0mm
22:49 61.2 °F /  16.2 °C 52.7 °F /  11.5 °C 29.9in /  1013.0hPa NE 4.7mph /  7.5km/h 7.4mph /  11.9km/h 74% 0in /  0.0mm
22:54 61 °F /  16.1 °C 52.9 °F /  11.6 °C 29.9in /  1013.0hPa NE 5.2mph /  8.4km/h 7.6mph /  12.2km/h 74.5% 0in /  0.0mm
22:59 61 °F /  16.1 °C 52.9 °F /  11.6 °C 29.9in /  1013.0hPa NE 5mph /  8km/h 8mph /  12.9km/h 75% 0in /  0.0mm
23:04 60.8 °F /  16 °C 53.2 °F /  11.8 °C 29.9in /  1013.0hPa NNE 4.7mph /  7.6km/h 7mph /  11.3km/h 76% 0in /  0.0mm
23:09 60.6 °F /  15.9 °C 53.1 °F /  11.7 °C 29.9in /  1013.0hPa NE 4.1mph /  6.6km/h 7mph /  11.3km/h 76% 0in /  0.0mm
23:14 60.6 °F /  15.9 °C 53.1 °F /  11.7 °C 29.9in /  1013.0hPa NE 3.1mph /  5km/h 6mph /  9.7km/h 76.3% 0in /  0.0mm
23:19 60.6 °F /  15.9 °C 53.4 °F /  11.9 °C 29.9in /  1013.1hPa NE 3mph /  4.9km/h 6mph /  9.7km/h 77% 0in /  0.0mm
23:24 60.6 °F /  15.9 °C 53.6 °F /  12 °C 29.9in /  1013.1hPa NNE 2.9mph /  4.7km/h 5mph /  8km/h 77.8% 0in /  0.0mm
23:29 60.6 °F /  15.9 °C 53.8 °F /  12.1 °C 29.9in /  1013.1hPa ENE 2.5mph /  4km/h 5mph /  8km/h 78% 0in /  0.0mm
23:34 60.6 °F /  15.9 °C 53.8 °F /  12.1 °C 29.9in /  1013.2hPa ENE 1.8mph /  2.9km/h 3mph /  4.8km/h 78% 0in /  0.0mm
23:39 60.6 °F /  15.9 °C 53.8 °F /  12.1 °C 29.9in /  1013.2hPa ENE 1.2mph /  1.9km/h 2.3mph /  3.7km/h 78% 0in /  0.0mm
23:44 60.6 °F /  15.9 °C 54 °F /  12.2 °C 29.9in /  1013.2hPa Calm   2mph /  3.2km/h 78.7% 0in /  0.0mm
23:49 60.6 °F /  15.9 °C 54.1 °F /  12.3 °C 29.9in /  1013.3hPa Calm   4mph /  6.4km/h 78.9% 0in /  0.0mm
23:54 60.6 °F /  15.9 °C 53.8 °F /  12.1 °C 29.9in /  1013.3hPa Calm   5mph /  8km/h 78% 0in /  0.0mm
23:59 60.4 °F /  15.8 °C 53.6 °F /  12 °C 29.9in /  1013.3hPa NO 0.8mph /  1.3km/h 4mph /  6.4km/h 78% 0in /  0.0mm
Murcia-Puente Tocinos, España
Compliments of Weather Underground - 3 mb

La estación de MeteoMurcia.com, publica sus datos en los siguientes proyectos:

Weather Underground PWS IMURCIAP2 Meteoclimatic www.awekas.at

W3Counter
Web Analytics